sensor_id;sensor_type;location;lat;lon;timestamp;pressure;altitude;pressure_sealevel;temperature;humidity
5296;BME280;2670;42.720;23.336;2023-05-23T00:00:11;-22746.34;;;10.46;100.00
5296;BME280;2670;42.720;23.336;2023-05-23T00:02:38;-22748.41;;;10.53;100.00
5296;BME280;2670;42.720;23.336;2023-05-23T00:05:06;-22747.38;;;10.50;100.00
5296;BME280;2670;42.720;23.336;2023-05-23T00:07:33;-22748.09;;;10.52;100.00
5296;BME280;2670;42.720;23.336;2023-05-23T00:10:00;-22746.19;;;10.45;100.00
5296;BME280;2670;42.720;23.336;2023-05-23T00:12:28;-22745.88;;;10.44;100.00
5296;BME280;2670;42.720;23.336;2023-05-23T00:14:55;-22740.41;;;10.26;100.00
5296;BME280;2670;42.720;23.336;2023-05-23T00:17:21;-22737.13;;;10.14;100.00
5296;BME280;2670;42.720;23.336;2023-05-23T00:19:49;-22738.19;;;10.18;100.00
5296;BME280;2670;42.720;23.336;2023-05-23T00:22:17;-22739.34;;;10.22;100.00
5296;BME280;2670;42.720;23.336;2023-05-23T00:24:43;-22740.25;;;10.25;100.00
5296;BME280;2670;42.720;23.336;2023-05-23T00:27:10;-22740.69;;;10.27;100.00
5296;BME280;2670;42.720;23.336;2023-05-23T00:29:38;-22741.13;;;10.28;100.00
5296;BME280;2670;42.720;23.336;2023-05-23T00:32:05;-22739.81;;;10.23;100.00
5296;BME280;2670;42.720;23.336;2023-05-23T00:34:32;-22736.53;;;10.12;100.00
5296;BME280;2670;42.720;23.336;2023-05-23T00:36:58;-22738.63;;;10.19;100.00
5296;BME280;2670;42.720;23.336;2023-05-23T00:39:26;-22740.25;;;10.25;100.00
5296;BME280;2670;42.720;23.336;2023-05-23T00:41:53;-22740.56;;;10.26;100.00
5296;BME280;2670;42.720;23.336;2023-05-23T00:44:20;-22738.91;;;10.20;100.00
5296;BME280;2670;42.720;23.336;2023-05-23T00:46:54;-22736.25;;;10.11;100.00
5296;BME280;2670;42.720;23.336;2023-05-23T00:49:22;-22735.22;;;10.08;100.00
5296;BME280;2670;42.720;23.336;2023-05-23T00:51:49;-22734.75;;;10.06;100.00
5296;BME280;2670;42.720;23.336;2023-05-23T00:54:17;-22733.44;;;10.02;100.00
5296;BME280;2670;42.720;23.336;2023-05-23T00:56:46;-22733.56;;;10.02;100.00
5296;BME280;2670;42.720;23.336;2023-05-23T00:59:13;-22733.72;;;10.03;100.00
5296;BME280;2670;42.720;23.336;2023-05-23T01:01:41;-22730.63;;;9.92;100.00
5296;BME280;2670;42.720;23.336;2023-05-23T01:04:12;-22730.31;;;9.91;100.00
5296;BME280;2670;42.720;23.336;2023-05-23T01:06:40;-22728.53;;;9.85;100.00
5296;BME280;2670;42.720;23.336;2023-05-23T01:09:11;-22729.56;;;9.88;100.00
5296;BME280;2670;42.720;23.336;2023-05-23T01:11:42;-22730.31;;;9.91;100.00
5296;BME280;2670;42.720;23.336;2023-05-23T01:14:20;-22731.06;;;9.93;100.00
5296;BME280;2670;42.720;23.336;2023-05-23T01:16:54;-22728.84;;;9.86;100.00
5296;BME280;2670;42.720;23.336;2023-05-23T01:19:48;-22727.34;;;9.81;100.00
5296;BME280;2670;42.720;23.336;2023-05-23T01:22:23;-22724.97;;;9.72;100.00
5296;BME280;2670;42.720;23.336;2023-05-23T01:24:59;-22725.88;;;9.76;100.00
5296;BME280;2670;42.720;23.336;2023-05-23T01:27:48;-22723.50;;;9.67;100.00
5296;BME280;2670;42.720;23.336;2023-05-23T01:30:18;-22722.75;;;9.65;100.00
5296;BME280;2670;42.720;23.336;2023-05-23T01:32:45;-22720.69;;;9.58;100.00
5296;BME280;2670;42.720;23.336;2023-05-23T01:35:14;-22719.34;;;9.53;100.00
5296;BME280;2670;42.720;23.336;2023-05-23T01:37:44;-22722.91;;;9.65;100.00
5296;BME280;2670;42.720;23.336;2023-05-23T01:40:11;-22722.75;;;9.65;100.00
5296;BME280;2670;42.720;23.336;2023-05-23T01:42:38;-22720.69;;;9.58;100.00
5296;BME280;2670;42.720;23.336;2023-05-23T01:45:08;-22720.38;;;9.57;100.00
5296;BME280;2670;42.720;23.336;2023-05-23T01:47:36;-22718.91;;;9.52;100.00
5296;BME280;2670;42.720;23.336;2023-05-23T01:50:04;-22718.91;;;9.52;100.00
5296;BME280;2670;42.720;23.336;2023-05-23T01:52:31;-22717.41;;;9.46;100.00
5296;BME280;2670;42.720;23.336;2023-05-23T01:54:59;-22717.13;;;9.45;100.00
5296;BME280;2670;42.720;23.336;2023-05-23T01:57:28;-22719.66;;;9.54;100.00
5296;BME280;2670;42.720;23.336;2023-05-23T01:59:56;-22716.38;;;9.43;100.00
5296;BME280;2670;42.720;23.336;2023-05-23T02:02:24;-22715.94;;;9.41;100.00
5296;BME280;2670;42.720;23.336;2023-05-23T02:04:51;-22714.91;;;9.38;100.00
5296;BME280;2670;42.720;23.336;2023-05-23T02:07:18;-22716.53;;;9.43;100.00
5296;BME280;2670;42.720;23.336;2023-05-23T02:09:47;-22715.94;;;9.41;100.00
5296;BME280;2670;42.720;23.336;2023-05-23T02:12:14;-22716.09;;;9.42;100.00
5296;BME280;2670;42.720;23.336;2023-05-23T02:14:40;-22715.94;;;9.41;100.00
5296;BME280;2670;42.720;23.336;2023-05-23T02:17:07;-22718.00;;;9.48;100.00
5296;BME280;2670;42.720;23.336;2023-05-23T02:19:36;-22721.13;;;9.59;100.00
5296;BME280;2670;42.720;23.336;2023-05-23T02:22:03;-22717.56;;;9.47;100.00
5296;BME280;2670;42.720;23.336;2023-05-23T02:24:30;-22715.34;;;9.39;100.00
5296;BME280;2670;42.720;23.336;2023-05-23T02:26:57;-22719.78;;;9.55;100.00
5296;BME280;2670;42.720;23.336;2023-05-23T02:29:23;-22718.59;;;9.51;100.00
5296;BME280;2670;42.720;23.336;2023-05-23T02:31:50;-22718.31;;;9.50;100.00
5296;BME280;2670;42.720;23.336;2023-05-23T02:34:17;-22719.06;;;9.52;100.00
5296;BME280;2670;42.720;23.336;2023-05-23T02:36:45;-22718.47;;;9.50;100.00
5296;BME280;2670;42.720;23.336;2023-05-23T02:39:11;-22721.13;;;9.59;100.00
5296;BME280;2670;42.720;23.336;2023-05-23T02:41:39;-22720.09;;;9.56;100.00
5296;BME280;2670;42.720;23.336;2023-05-23T02:44:05;-22716.81;;;9.44;100.00
5296;BME280;2670;42.720;23.336;2023-05-23T02:46:32;-22715.63;;;9.40;100.00
5296;BME280;2670;42.720;23.336;2023-05-23T02:48:59;-22714.59;;;9.37;100.00
5296;BME280;2670;42.720;23.336;2023-05-23T02:51:25;-22712.97;;;9.31;100.00
5296;BME280;2670;42.720;23.336;2023-05-23T02:53:53;-22711.78;;;9.27;100.00
5296;BME280;2670;42.720;23.336;2023-05-23T02:56:20;-22713.41;;;9.33;100.00
5296;BME280;2670;42.720;23.336;2023-05-23T02:58:47;-22711.94;;;9.28;100.00
5296;BME280;2670;42.720;23.336;2023-05-23T03:01:14;-22714.31;;;9.36;100.00
5296;BME280;2670;42.720;23.336;2023-05-23T03:03:42;-22715.03;;;9.38;100.00
5296;BME280;2670;42.720;23.336;2023-05-23T03:06:09;-22717.56;;;9.47;100.00
5296;BME280;2670;42.720;23.336;2023-05-23T03:08:39;-22718.31;;;9.50;100.00
5296;BME280;2670;42.720;23.336;2023-05-23T03:11:07;-22719.66;;;9.54;100.00
5296;BME280;2670;42.720;23.336;2023-05-23T03:13:33;-22721.56;;;9.61;100.00
5296;BME280;2670;42.720;23.336;2023-05-23T03:16:00;-22720.97;;;9.59;100.00
5296;BME280;2670;42.720;23.336;2023-05-23T03:18:27;-22722.16;;;9.63;100.00
5296;BME280;2670;42.720;23.336;2023-05-23T03:20:54;-22725.56;;;9.75;100.00
5296;BME280;2670;42.720;23.336;2023-05-23T03:23:20;-22722.75;;;9.65;100.00
5296;BME280;2670;42.720;23.336;2023-05-23T03:25:47;-22723.06;;;9.66;100.00
5296;BME280;2670;42.720;23.336;2023-05-23T03:28:15;-22723.22;;;9.66;100.00
5296;BME280;2670;42.720;23.336;2023-05-23T03:30:42;-22725.28;;;9.73;100.00
5296;BME280;2670;42.720;23.336;2023-05-23T03:33:09;-22721.88;;;9.62;100.00
5296;BME280;2670;42.720;23.336;2023-05-23T03:35:36;-22718.91;;;9.52;100.00
5296;BME280;2670;42.720;23.336;2023-05-23T03:38:03;-22725.56;;;9.75;100.00
5296;BME280;2670;42.720;23.336;2023-05-23T03:40:29;-22726.03;;;9.76;100.00
5296;BME280;2670;42.720;23.336;2023-05-23T03:43:02;-22722.31;;;9.63;100.00
5296;BME280;2670;42.720;23.336;2023-05-23T03:45:31;-22723.78;;;9.68;100.00
5296;BME280;2670;42.720;23.336;2023-05-23T03:47:58;-22720.38;;;9.57;100.00
5296;BME280;2670;42.720;23.336;2023-05-23T03:50:26;-22717.41;;;9.46;100.00
5296;BME280;2670;42.720;23.336;2023-05-23T03:52:53;-22720.25;;;9.56;100.00
5296;BME280;2670;42.720;23.336;2023-05-23T03:55:20;-22717.13;;;9.45;100.00
5296;BME280;2670;42.720;23.336;2023-05-23T03:57:48;-22720.53;;;9.57;100.00
5296;BME280;2670;42.720;23.336;2023-05-23T04:00:15;-22716.38;;;9.43;100.00
5296;BME280;2670;42.720;23.336;2023-05-23T04:02:44;-22715.63;;;9.40;100.00
5296;BME280;2670;42.720;23.336;2023-05-23T04:05:11;-22719.94;;;9.55;100.00
5296;BME280;2670;42.720;23.336;2023-05-23T04:07:38;-22720.38;;;9.57;100.00
5296;BME280;2670;42.720;23.336;2023-05-23T04:10:07;-22718.00;;;9.48;100.00
5296;BME280;2670;42.720;23.336;2023-05-23T04:12:33;-22718.31;;;9.50;100.00
5296;BME280;2670;42.720;23.336;2023-05-23T04:15:00;-22715.94;;;9.41;100.00
5296;BME280;2670;42.720;23.336;2023-05-23T04:17:28;-22720.09;;;9.56;100.00
5296;BME280;2670;42.720;23.336;2023-05-23T04:19:57;-22719.19;;;9.53;100.00
5296;BME280;2670;42.720;23.336;2023-05-23T04:22:24;-22716.38;;;9.43;100.00
5296;BME280;2670;42.720;23.336;2023-05-23T04:24:50;-22721.28;;;9.60;100.00
5296;BME280;2670;42.720;23.336;2023-05-23T04:27:17;-22716.69;;;9.44;100.00
5296;BME280;2670;42.720;23.336;2023-05-23T04:29:44;-22714.16;;;9.35;100.00
5296;BME280;2670;42.720;23.336;2023-05-23T04:32:11;-22715.78;;;9.41;100.00
5296;BME280;2670;42.720;23.336;2023-05-23T04:34:39;-22718.00;;;9.48;100.00
5296;BME280;2670;42.720;23.336;2023-05-23T04:37:07;-22717.88;;;9.48;100.00
5296;BME280;2670;42.720;23.336;2023-05-23T04:39:34;-22721.13;;;9.59;100.00
5296;BME280;2670;42.720;23.336;2023-05-23T04:42:01;-22720.97;;;9.59;100.00
5296;BME280;2670;42.720;23.336;2023-05-23T04:44:28;-22716.38;;;9.43;100.00
5296;BME280;2670;42.720;23.336;2023-05-23T04:46:55;-22714.31;;;9.36;100.00
5296;BME280;2670;42.720;23.336;2023-05-23T04:49:21;-22715.63;;;9.40;100.00
5296;BME280;2670;42.720;23.336;2023-05-23T04:51:48;-22714.91;;;9.38;100.00
5296;BME280;2670;42.720;23.336;2023-05-23T04:54:16;-22717.88;;;9.48;100.00
5296;BME280;2670;42.720;23.336;2023-05-23T04:56:43;-22718.00;;;9.48;100.00
5296;BME280;2670;42.720;23.336;2023-05-23T04:59:10;-22717.41;;;9.46;100.00
5296;BME280;2670;42.720;23.336;2023-05-23T05:01:37;-22718.00;;;9.48;100.00
5296;BME280;2670;42.720;23.336;2023-05-23T05:04:04;-22721.72;;;9.61;100.00
5296;BME280;2670;42.720;23.336;2023-05-23T05:06:31;-22720.97;;;9.59;100.00
5296;BME280;2670;42.720;23.336;2023-05-23T05:08:58;-22722.59;;;9.64;100.00
5296;BME280;2670;42.720;23.336;2023-05-23T05:11:26;-22723.94;;;9.69;100.00
5296;BME280;2670;42.720;23.336;2023-05-23T05:13:53;-22725.28;;;9.73;100.00
5296;BME280;2670;42.720;23.336;2023-05-23T05:16:20;-22724.97;;;9.72;100.00
5296;BME280;2670;42.720;23.336;2023-05-23T05:18:47;-22722.03;;;9.62;100.00
5296;BME280;2670;42.720;23.336;2023-05-23T05:21:14;-22720.09;;;9.56;100.00
5296;BME280;2670;42.720;23.336;2023-05-23T05:23:41;-22721.13;;;9.59;100.00
5296;BME280;2670;42.720;23.336;2023-05-23T05:26:07;-22720.84;;;9.58;100.00
5296;BME280;2670;42.720;23.336;2023-05-23T05:28:36;-22723.22;;;9.66;100.00
5296;BME280;2670;42.720;23.336;2023-05-23T05:31:03;-22725.72;;;9.75;100.00
5296;BME280;2670;42.720;23.336;2023-05-23T05:33:30;-22726.47;;;9.78;100.00
5296;BME280;2670;42.720;23.336;2023-05-23T05:36:00;-22726.63;;;9.78;100.00
5296;BME280;2670;42.720;23.336;2023-05-23T05:38:27;-22730.75;;;9.92;100.00
5296;BME280;2670;42.720;23.336;2023-05-23T05:40:54;-22732.09;;;9.97;100.00
5296;BME280;2670;42.720;23.336;2023-05-23T05:43:21;-22733.88;;;10.03;100.00
5296;BME280;2670;42.720;23.336;2023-05-23T05:45:49;-22734.19;;;10.04;100.00
5296;BME280;2670;42.720;23.336;2023-05-23T05:48:16;-22731.50;;;9.95;100.00
5296;BME280;2670;42.720;23.336;2023-05-23T05:50:42;-22732.41;;;9.98;100.00
5296;BME280;2670;42.720;23.336;2023-05-23T05:53:09;-22735.94;;;10.10;100.00
5296;BME280;2670;42.720;23.336;2023-05-23T05:55:36;-22732.84;;;10.00;100.00
5296;BME280;2670;42.720;23.336;2023-05-23T05:58:03;-22739.22;;;10.21;100.00
5296;BME280;2670;42.720;23.336;2023-05-23T06:00:30;-22737.59;;;10.16;100.00
5296;BME280;2670;42.720;23.336;2023-05-23T06:02:58;-22735.66;;;10.09;100.00
5296;BME280;2670;42.720;23.336;2023-05-23T06:05:25;-22734.63;;;10.06;100.00
5296;BME280;2670;42.720;23.336;2023-05-23T06:07:51;-22736.53;;;10.12;100.00
5296;BME280;2670;42.720;23.336;2023-05-23T06:10:18;-22737.13;;;10.14;100.00
5296;BME280;2670;42.720;23.336;2023-05-23T06:12:45;-22740.25;;;10.25;100.00
5296;BME280;2670;42.720;23.336;2023-05-23T06:15:11;-22741.75;;;10.30;100.00
5296;BME280;2670;42.720;23.336;2023-05-23T06:17:39;-22741.59;;;10.30;100.00
5296;BME280;2670;42.720;23.336;2023-05-23T06:20:07;-22744.56;;;10.40;100.00
5296;BME280;2670;42.720;23.336;2023-05-23T06:22:34;-22750.78;;;10.61;100.00
5296;BME280;2670;42.720;23.336;2023-05-23T06:25:01;-22749.88;;;10.58;100.00
5296;BME280;2670;42.720;23.336;2023-05-23T06:27:28;-22745.44;;;10.43;100.00
5296;BME280;2670;42.720;23.336;2023-05-23T06:29:54;-22746.34;;;10.46;100.00
5296;BME280;2670;42.720;23.336;2023-05-23T06:32:21;-22746.03;;;10.45;100.00
5296;BME280;2670;42.720;23.336;2023-05-23T06:34:48;-22746.63;;;10.47;100.00
5296;BME280;2670;42.720;23.336;2023-05-23T06:37:16;-22748.56;;;10.54;100.00
5296;BME280;2670;42.720;23.336;2023-05-23T06:39:42;-22750.19;;;10.59;100.00
5296;BME280;2670;42.720;23.336;2023-05-23T06:42:09;-22751.81;;;10.65;100.00
5296;BME280;2670;42.720;23.336;2023-05-23T06:44:36;-22756.84;;;10.82;100.00
5296;BME280;2670;42.720;23.336;2023-05-23T06:47:03;-22754.91;;;10.76;100.00
5296;BME280;2670;42.720;23.336;2023-05-23T06:49:29;-22756.56;;;10.81;100.00
5296;BME280;2670;42.720;23.336;2023-05-23T06:51:56;-22759.34;;;10.91;100.00
5296;BME280;2670;42.720;23.336;2023-05-23T06:54:24;-22757.72;;;10.85;100.00
5296;BME280;2670;42.720;23.336;2023-05-23T06:56:51;-22758.19;;;10.87;100.00
5296;BME280;2670;42.720;23.336;2023-05-23T06:59:18;-22761.72;;;10.99;100.00
5296;BME280;2670;42.720;23.336;2023-05-23T07:01:44;-22762.31;;;11.01;100.00
5296;BME280;2670;42.720;23.336;2023-05-23T07:04:11;-22760.53;;;10.95;100.00
5296;BME280;2670;42.720;23.336;2023-05-23T07:06:38;-22766.47;;;11.15;100.00
5296;BME280;2670;42.720;23.336;2023-05-23T07:09:05;-22766.31;;;11.15;100.00
5296;BME280;2670;42.720;23.336;2023-05-23T07:11:33;-22767.34;;;11.18;100.00
5296;BME280;2670;42.720;23.336;2023-05-23T07:14:01;-22772.97;;;11.38;100.00
5296;BME280;2670;42.720;23.336;2023-05-23T07:16:27;-22774.31;;;11.42;100.00
5296;BME280;2670;42.720;23.336;2023-05-23T07:18:54;-22776.09;;;11.48;100.00
5296;BME280;2670;42.720;23.336;2023-05-23T07:21:21;-22776.97;;;11.52;100.00
5296;BME280;2670;42.720;23.336;2023-05-23T07:23:48;-22777.28;;;11.53;100.00
5296;BME280;2670;42.720;23.336;2023-05-23T07:26:14;-22783.63;;;11.75;100.00
5296;BME280;2670;42.720;23.336;2023-05-23T07:28:43;-22786.00;;;11.83;100.00
5296;BME280;2670;42.720;23.336;2023-05-23T07:31:09;-22784.06;;;11.76;100.00
5296;BME280;2670;42.720;23.336;2023-05-23T07:33:37;-22786.16;;;11.83;100.00
5296;BME280;2670;42.720;23.336;2023-05-23T07:36:04;-22784.66;;;11.78;100.00
5296;BME280;2670;42.720;23.336;2023-05-23T07:38:31;-22784.53;;;11.78;100.00
5296;BME280;2670;42.720;23.336;2023-05-23T07:40:58;-22782.31;;;11.70;100.00
5296;BME280;2670;42.720;23.336;2023-05-23T07:43:24;-22784.97;;;11.79;100.00
5296;BME280;2670;42.720;23.336;2023-05-23T07:45:52;-22787.19;;;11.87;100.00
5296;BME280;2670;42.720;23.336;2023-05-23T07:48:19;-22790.44;;;11.98;100.00
5296;BME280;2670;42.720;23.336;2023-05-23T07:50:46;-22794.44;;;12.12;100.00
5296;BME280;2670;42.720;23.336;2023-05-23T07:53:12;-22797.84;;;12.24;100.00
5296;BME280;2670;42.720;23.336;2023-05-23T07:55:40;-22800.94;;;12.34;100.00
5296;BME280;2670;42.720;23.336;2023-05-23T07:58:07;-22802.56;;;12.40;100.00
5296;BME280;2670;42.720;23.336;2023-05-23T08:00:33;-22803.91;;;12.44;100.00
5296;BME280;2670;42.720;23.336;2023-05-23T08:03:02;-22807.88;;;12.58;100.00
5296;BME280;2670;42.720;23.336;2023-05-23T08:05:29;-22807.72;;;12.58;100.00
5296;BME280;2670;42.720;23.336;2023-05-23T08:07:56;-22813.06;;;12.76;100.00
5296;BME280;2670;42.720;23.336;2023-05-23T08:10:22;-22815.72;;;12.85;100.00
5296;BME280;2670;42.720;23.336;2023-05-23T08:12:52;-22820.88;;;13.03;100.00
5296;BME280;2670;42.720;23.336;2023-05-23T08:15:19;-22823.09;;;13.11;100.00
5296;BME280;2670;42.720;23.336;2023-05-23T08:17:47;-22829.31;;;13.32;100.00
5296;BME280;2670;42.720;23.336;2023-05-23T08:20:15;-22830.63;;;13.37;100.00
5296;BME280;2670;42.720;23.336;2023-05-23T08:22:42;-22835.81;;;13.55;100.00
5296;BME280;2670;42.720;23.336;2023-05-23T08:25:09;-22839.78;;;13.68;100.00
5296;BME280;2670;42.720;23.336;2023-05-23T08:27:36;-22842.75;;;13.79;100.00
5296;BME280;2670;42.720;23.336;2023-05-23T08:30:04;-22844.06;;;13.83;100.00
5296;BME280;2670;42.720;23.336;2023-05-23T08:32:31;-22848.34;;;13.98;100.00
5296;BME280;2670;42.720;23.336;2023-05-23T08:34:58;-22847.91;;;13.97;100.00
5296;BME280;2670;42.720;23.336;2023-05-23T08:37:26;-22851.16;;;14.08;100.00
5296;BME280;2670;42.720;23.336;2023-05-23T08:39:53;-22854.84;;;14.20;100.00
5296;BME280;2670;42.720;23.336;2023-05-23T08:42:19;-22859.84;;;14.38;100.00
5296;BME280;2670;42.720;23.336;2023-05-23T08:44:46;-22861.91;;;14.45;100.00
5296;BME280;2670;42.720;23.336;2023-05-23T08:47:15;-22863.84;;;14.52;100.00
5296;BME280;2670;42.720;23.336;2023-05-23T08:49:43;-22867.66;;;14.65;100.00
5296;BME280;2670;42.720;23.336;2023-05-23T08:52:11;-22867.06;;;14.63;100.00
5296;BME280;2670;42.720;23.336;2023-05-23T08:54:41;-22871.50;;;14.78;100.00
5296;BME280;2670;42.720;23.336;2023-05-23T08:57:08;-22877.09;;;14.98;100.00
5296;BME280;2670;42.720;23.336;2023-05-23T08:59:37;-22880.94;;;15.11;100.00
5296;BME280;2670;42.720;23.336;2023-05-23T09:02:06;-22880.78;;;15.10;100.00
5296;BME280;2670;42.720;23.336;2023-05-23T09:04:36;-22882.84;;;15.17;100.00
5296;BME280;2670;42.720;23.336;2023-05-23T09:07:03;-22884.63;;;15.24;100.00
5296;BME280;2670;42.720;23.336;2023-05-23T09:09:31;-22890.50;;;15.44;100.00
5296;BME280;2670;42.720;23.336;2023-05-23T09:11:59;-22894.34;;;15.57;100.00
5296;BME280;2670;42.720;23.336;2023-05-23T09:14:27;-22895.81;;;15.62;100.00
5296;BME280;2670;42.720;23.336;2023-05-23T09:16:59;-22900.09;;;15.77;100.00
5296;BME280;2670;42.720;23.336;2023-05-23T09:19:27;-22904.66;;;15.93;100.00
5296;BME280;2670;42.720;23.336;2023-05-23T09:21:54;-22908.19;;;16.05;100.00
5296;BME280;2670;42.720;23.336;2023-05-23T09:24:21;-22905.66;;;15.97;100.00
5296;BME280;2670;42.720;23.336;2023-05-23T09:26:48;-22911.84;;;16.18;100.00
5296;BME280;2670;42.720;23.336;2023-05-23T09:29:19;-22915.22;;;16.30;100.00
5296;BME280;2670;42.720;23.336;2023-05-23T09:31:46;-22919.34;;;16.44;100.00
5296;BME280;2670;42.720;23.336;2023-05-23T09:34:13;-22923.91;;;16.60;100.00
5296;BME280;2670;42.720;23.336;2023-05-23T09:36:40;-22930.97;;;16.84;100.00
5296;BME280;2670;42.720;23.336;2023-05-23T09:39:10;-22933.63;;;16.93;100.00
5296;BME280;2670;42.720;23.336;2023-05-23T09:41:37;-22937.44;;;17.07;100.00
5296;BME280;2670;42.720;23.336;2023-05-23T09:44:05;-22938.03;;;17.09;100.00
5296;BME280;2670;42.720;23.336;2023-05-23T09:46:35;-22943.19;;;17.27;100.00
5296;BME280;2670;42.720;23.336;2023-05-23T09:49:13;-22948.16;;;17.44;100.00
5296;BME280;2670;42.720;23.336;2023-05-23T09:51:40;-22952.13;;;17.58;100.00
5296;BME280;2670;42.720;23.336;2023-05-23T09:54:07;-22952.28;;;17.58;100.00
5296;BME280;2670;42.720;23.336;2023-05-23T09:56:36;-22953.75;;;17.63;100.00
5296;BME280;2670;42.720;23.336;2023-05-23T09:59:06;-22961.38;;;17.90;100.00
5296;BME280;2670;42.720;23.336;2023-05-23T10:01:37;-22966.22;;;18.07;99.72
5296;BME280;2670;42.720;23.336;2023-05-23T10:04:04;-22964.78;;;18.02;100.00
5296;BME280;2670;42.720;23.336;2023-05-23T10:06:37;-22966.97;;;18.09;96.28
5296;BME280;2670;42.720;23.336;2023-05-23T10:09:09;-22973.88;;;18.33;87.18
5296;BME280;2670;42.720;23.336;2023-05-23T10:14:44;-22983.53;;;18.67;82.70
5296;BME280;2670;42.720;23.336;2023-05-23T10:17:20;-22984.88;;;18.72;84.50
5296;BME280;2670;42.720;23.336;2023-05-23T10:19:54;-22986.19;;;18.76;84.72
5296;BME280;2670;42.720;23.336;2023-05-23T10:22:24;-22988.84;;;18.85;81.25
5296;BME280;2670;42.720;23.336;2023-05-23T10:24:51;-22998.22;;;19.18;77.78
5296;BME280;2670;42.720;23.336;2023-05-23T10:27:19;-23000.13;;;19.25;77.64
5296;BME280;2670;42.720;23.336;2023-05-23T10:29:46;-22994.53;;;19.05;73.85
5296;BME280;2670;42.720;23.336;2023-05-23T10:32:16;-22997.34;;;19.15;78.18
5296;BME280;2670;42.720;23.336;2023-05-23T10:34:50;-23000.41;;;19.26;76.69
5296;BME280;2670;42.720;23.336;2023-05-23T10:37:23;-23003.34;;;19.36;80.68
5296;BME280;2670;42.720;23.336;2023-05-23T10:39:58;-23004.81;;;19.41;75.52
5296;BME280;2670;42.720;23.336;2023-05-23T10:42:40;-23007.00;;;19.49;74.36
5296;BME280;2670;42.720;23.336;2023-05-23T10:45:19;-23010.06;;;19.59;73.69
5296;BME280;2670;42.720;23.336;2023-05-23T10:47:50;-23009.19;;;19.56;72.73
5296;BME280;2670;42.720;23.336;2023-05-23T10:50:30;-23017.69;;;19.86;69.14
5296;BME280;2670;42.720;23.336;2023-05-23T10:52:59;-23013.31;;;19.71;71.93
5296;BME280;2670;42.720;23.336;2023-05-23T10:55:30;-23011.69;;;19.65;74.13
5296;BME280;2670;42.720;23.336;2023-05-23T10:58:11;-23019.31;;;19.92;67.79
5296;BME280;2670;42.720;23.336;2023-05-23T11:00:50;-23017.69;;;19.86;70.91
5296;BME280;2670;42.720;23.336;2023-05-23T11:03:29;-23019.59;;;19.93;71.01
5296;BME280;2670;42.720;23.336;2023-05-23T11:05:58;-23019.16;;;19.91;67.85
5296;BME280;2670;42.720;23.336;2023-05-23T11:08:26;-23016.38;;;19.81;66.72
5296;BME280;2670;42.720;23.336;2023-05-23T11:10:57;-23017.13;;;19.84;68.27
5296;BME280;2670;42.720;23.336;2023-05-23T11:13:25;-23013.44;;;19.71;68.41
5296;BME280;2670;42.720;23.336;2023-05-23T11:15:52;-23011.69;;;19.65;69.25
5296;BME280;2670;42.720;23.336;2023-05-23T11:18:21;-23015.22;;;19.77;66.64
5296;BME280;2670;42.720;23.336;2023-05-23T11:20:50;-23016.97;;;19.83;65.41
5296;BME280;2670;42.720;23.336;2023-05-23T11:23:18;-23019.44;;;19.92;68.14
5296;BME280;2670;42.720;23.336;2023-05-23T11:25:47;-23023.13;;;20.05;67.80
5296;BME280;2670;42.720;23.336;2023-05-23T11:28:15;-23025.31;;;20.12;70.20
5296;BME280;2670;42.720;23.336;2023-05-23T11:30:42;-23023.41;;;20.06;66.60
5296;BME280;2670;42.720;23.336;2023-05-23T11:33:10;-23028.81;;;20.25;62.86
5296;BME280;2670;42.720;23.336;2023-05-23T11:35:41;-23027.50;;;20.20;64.40
5296;BME280;2670;42.720;23.336;2023-05-23T11:38:08;-23026.78;;;20.18;64.24
5296;BME280;2670;42.720;23.336;2023-05-23T11:40:36;-23026.19;;;20.15;64.44
5296;BME280;2670;42.720;23.336;2023-05-23T11:43:05;-23027.34;;;20.20;67.43
5296;BME280;2670;42.720;23.336;2023-05-23T11:45:32;-23027.94;;;20.22;66.94
5296;BME280;2670;42.720;23.336;2023-05-23T11:48:04;-23028.81;;;20.25;65.32
5296;BME280;2670;42.720;23.336;2023-05-23T11:50:31;-23030.13;;;20.29;66.11
5296;BME280;2670;42.720;23.336;2023-05-23T11:52:59;-23031.03;;;20.32;66.20
5296;BME280;2670;42.720;23.336;2023-05-23T11:55:26;-23033.78;;;20.42;65.49
5296;BME280;2670;42.720;23.336;2023-05-23T11:57:54;-23035.13;;;20.47;65.79
5296;BME280;2670;42.720;23.336;2023-05-23T12:00:21;-23035.72;;;20.49;63.18
5296;BME280;2670;42.720;23.336;2023-05-23T12:02:48;-23035.41;;;20.48;65.58
5296;BME280;2670;42.720;23.336;2023-05-23T12:05:15;-23027.94;;;20.22;64.31
5296;BME280;2670;42.720;23.336;2023-05-23T12:07:43;-23024.28;;;20.09;65.76
5296;BME280;2670;42.720;23.336;2023-05-23T12:10:13;-23022.81;;;20.04;65.61
5296;BME280;2670;42.720;23.336;2023-05-23T12:12:40;-23031.75;;;20.35;60.34
5296;BME280;2670;42.720;23.336;2023-05-23T12:15:08;-23029.84;;;20.28;60.71
5296;BME280;2670;42.720;23.336;2023-05-23T12:17:36;-23030.00;;;20.29;62.98
5296;BME280;2670;42.720;23.336;2023-05-23T12:20:04;-23028.81;;;20.25;64.37
5296;BME280;2670;42.720;23.336;2023-05-23T12:22:31;-23030.72;;;20.31;61.81
5296;BME280;2670;42.720;23.336;2023-05-23T12:24:57;-23032.47;;;20.37;65.73
5296;BME280;2670;42.720;23.336;2023-05-23T12:27:29;-23034.09;;;20.43;62.42
5296;BME280;2670;42.720;23.336;2023-05-23T12:30:08;-23036.44;;;20.51;61.97
5296;BME280;2670;42.720;23.336;2023-05-23T12:32:38;-23034.38;;;20.44;61.25
5296;BME280;2670;42.720;23.336;2023-05-23T12:35:06;-23034.81;;;20.46;61.37
5296;BME280;2670;42.720;23.336;2023-05-23T12:37:33;-23034.09;;;20.43;61.63
5296;BME280;2670;42.720;23.336;2023-05-23T12:40:09;-23035.41;;;20.48;60.54
5296;BME280;2670;42.720;23.336;2023-05-23T12:42:46;-23036.00;;;20.50;58.67
5296;BME280;2670;42.720;23.336;2023-05-23T12:45:15;-23037.16;;;20.54;59.85
5296;BME280;2670;42.720;23.336;2023-05-23T12:47:41;-23038.78;;;20.59;59.72
5296;BME280;2670;42.720;23.336;2023-05-23T12:50:09;-23043.75;;;20.77;57.52
5296;BME280;2670;42.720;23.336;2023-05-23T12:52:36;-23042.88;;;20.74;58.73
5296;BME280;2670;42.720;23.336;2023-05-23T12:55:05;-23047.56;;;20.90;53.43
5296;BME280;2670;42.720;23.336;2023-05-23T12:57:33;-23043.16;;;20.75;57.32
5296;BME280;2670;42.720;23.336;2023-05-23T13:00:01;-23040.69;;;20.66;55.18
5296;BME280;2670;42.720;23.336;2023-05-23T13:02:28;-23041.13;;;20.68;54.21